Time;durP1;ratioP1;P1;durP2;ratioP2;P2;SDS_P1;SDS_P2;PMS_P1;PMS_P2;Temp;Humidity;BMP_temperature;BMP_pressure;BME280_temperature;BME280_humidity;BME280_pressure;Samples;Min_cycle;Max_cycle;Signal;HPM_P1;HPM_P2
2022/07/20 00:00:32;;;;;;;6.20;4.72;;;;;;;21.65;59.16;99994.56;4978295;28;20118;-91
2022/07/20 00:03:05;;;;;;;5.25;4.45;;;;;;;21.60;59.15;99996.78;4977988;28;20034;-90
2022/07/20 00:05:31;;;;;;;10.77;5.65;;;;;;;21.55;59.53;99993.69;4978337;28;20041;-90
2022/07/20 00:07:56;;;;;;;7.13;5.00;;;;;;;21.51;59.98;99990.47;4978574;28;20026;-90
2022/07/20 00:13:05;;;;;;;9.48;5.35;;;;;;;21.44;60.29;99984.03;4995930;28;20044;-91
2022/07/20 00:15:31;;;;;;;7.07;5.32;;;;;;;21.36;60.70;99978.53;4978480;28;20034;-90
2022/07/20 00:17:56;;;;;;;5.97;4.88;;;;;;;21.40;60.34;99982.59;4978685;28;20018;-92
2022/07/20 00:20:22;;;;;;;6.60;4.68;;;;;;;21.38;60.91;99985.41;4978583;28;20438;-90
2022/07/20 00:22:47;;;;;;;6.88;5.07;;;;;;;21.40;60.94;99991.38;4978465;28;20546;-90
2022/07/20 00:25:13;;;;;;;8.02;4.97;;;;;;;21.40;60.76;99983.44;4978381;28;20058;-90
2022/07/20 00:27:38;;;;;;;7.75;4.75;;;;;;;21.43;60.63;99992.94;4977968;28;20537;-90
2022/07/20 00:30:04;;;;;;;6.38;4.88;;;;;;;21.41;60.46;99979.84;4978085;28;20023;-90
2022/07/20 00:32:29;;;;;;;6.55;4.97;;;;;;;21.35;60.26;99975.06;4977997;28;20133;-91
2022/07/20 00:34:55;;;;;;;6.88;4.93;;;;;;;21.38;60.03;99976.63;4978053;28;20472;-90
2022/07/20 00:37:20;;;;;;;8.30;5.10;;;;;;;21.42;60.00;99983.31;4978205;28;20030;-90
2022/07/20 00:39:46;;;;;;;7.07;5.10;;;;;;;21.42;60.28;99983.31;4978372;28;20486;-90
2022/07/20 00:42:11;;;;;;;7.95;5.00;;;;;;;21.40;60.19;99985.25;4978080;28;20462;-89
2022/07/20 00:44:36;;;;;;;9.60;5.00;;;;;;;21.35;60.50;99969.75;4977819;28;20390;-90
2022/07/20 00:47:02;;;;;;;5.82;4.70;;;;;;;21.37;60.04;99986.38;4978264;28;20045;-90
2022/07/20 00:49:28;;;;;;;9.05;5.25;;;;;;;21.38;60.02;99987.22;4977916;28;20474;-90
2022/07/20 00:51:53;;;;;;;7.80;5.00;;;;;;;21.37;60.09;99982.91;4977912;28;20031;-90
2022/07/20 00:54:19;;;;;;;6.72;4.68;;;;;;;21.24;58.65;99963.66;4995060;28;20085;-90
2022/07/20 00:56:45;;;;;;;7.25;4.63;;;;;;;21.34;58.34;99983.16;4994030;28;20458;-89
2022/07/20 00:59:10;;;;;;;7.53;5.57;;;;;;;21.36;58.66;99983.84;4977654;28;20034;-90
2022/07/20 01:01:36;;;;;;;6.22;4.75;;;;;;;21.32;58.84;99977.13;4977882;28;20088;-89
2022/07/20 01:04:02;;;;;;;9.05;4.85;;;;;;;21.31;59.42;99978.06;4993710;28;20433;-90
2022/07/20 01:06:28;;;;;;;9.18;5.20;;;;;;;21.22;59.73;99971.75;4977717;28;20489;-89
2022/07/20 01:08:54;;;;;;;6.93;4.85;;;;;;;21.06;59.77;99950.19;4976931;28;20085;-90
2022/07/20 01:11:20;;;;;;;6.07;5.07;;;;;;;21.14;60.26;99971.56;4977525;28;20027;-90
2022/07/20 01:13:46;;;;;;;7.18;4.97;;;;;;;21.14;60.12;99982.16;4977187;28;20028;-89
2022/07/20 01:16:11;;;;;;;6.38;4.72;;;;;;;21.12;59.80;99977.00;4977160;28;20138;-90
2022/07/20 01:18:37;;;;;;;8.93;4.88;;;;;;;21.12;59.69;99976.19;4977417;28;20466;-89
2022/07/20 01:21:07;;;;;;;7.55;4.63;;;;;;;21.09;59.94;99969.31;4977310;28;20119;-90
2022/07/20 01:23:32;;;;;;;5.97;4.68;;;;;;;21.09;60.07;99969.31;4977291;28;20026;-89
2022/07/20 01:25:59;;;;;;;6.60;4.75;;;;;;;21.07;59.88;99971.28;4976961;28;20026;-89
2022/07/20 01:28:25;;;;;;;8.10;5.18;;;;;;;21.07;59.94;99965.13;4977024;28;20397;-89
2022/07/20 01:30:50;;;;;;;4.75;4.03;;;;;;;21.09;59.56;99968.47;4976956;28;20430;-90
2022/07/20 01:33:17;;;;;;;8.02;5.00;;;;;;;21.06;59.23;99958.16;4994321;28;20120;-90
2022/07/20 01:35:43;;;;;;;6.43;4.38;;;;;;;21.07;59.28;99965.97;4977013;28;20030;-88
2022/07/20 01:38:08;;;;;;;5.68;4.45;;;;;;;21.07;59.04;99973.94;4976692;28;20080;-89
2022/07/20 01:40:34;;;;;;;6.68;4.57;;;;;;;20.95;58.53;99945.84;4977033;28;20045;-90
2022/07/20 01:42:59;;;;;;;5.68;4.78;;;;;;;21.01;58.90;99957.69;4976637;28;20030;-89
2022/07/20 01:45:24;;;;;;;6.45;4.30;;;;;;;21.01;58.61;99963.84;4977117;28;20058;-90
2022/07/20 01:47:50;;;;;;;7.25;4.07;;;;;;;21.01;58.67;99955.91;4976958;28;20113;-89
2022/07/20 01:50:15;;;;;;;5.43;4.28;;;;;;;21.02;58.01;99962.03;4976816;28;20034;-90
2022/07/20 01:52:40;;;;;;;8.90;5.00;;;;;;;20.98;58.58;99953.50;4976593;28;20030;-89
2022/07/20 01:55:06;;;;;;;6.38;4.68;;;;;;;20.97;58.93;99951.81;4975965;28;20030;-89
2022/07/20 01:57:32;;;;;;;5.43;4.32;;;;;;;20.96;59.24;99944.03;4976137;28;20033;-89
2022/07/20 01:59:57;;;;;;;12.88;4.90;;;;;;;20.97;58.93;99953.63;4976284;28;20121;-89
2022/07/20 02:02:23;;;;;;;6.40;4.32;;;;;;;20.90;58.92;99951.53;4976415;28;20030;-88
2022/07/20 02:04:48;;;;;;;5.72;4.25;;;;;;;20.96;58.70;99957.25;4976426;28;20509;-89
2022/07/20 02:07:14;;;;;;;7.13;3.80;;;;;;;20.95;58.41;99961.72;4976361;28;20764;-90
2022/07/20 02:09:39;;;;;;;6.90;4.63;;;;;;;20.95;58.58;99961.72;4971869;28;20038;-90
2022/07/20 02:12:05;;;;;;;6.90;4.38;;;;;;;20.90;59.15;99948.03;4971767;28;20062;-90
2022/07/20 02:14:30;;;;;;;7.03;4.20;;;;;;;20.78;58.98;99936.69;4972052;28;20498;-90
2022/07/20 02:16:56;;;;;;;5.55;4.10;;;;;;;20.89;59.14;99959.56;4971816;28;20035;-89
2022/07/20 02:19:21;;;;;;;6.78;4.32;;;;;;;20.79;58.71;99946.28;4971770;28;20047;-89
2022/07/20 02:21:46;;;;;;;7.90;4.68;;;;;;;20.85;59.41;99955.50;4971982;28;20038;-89
2022/07/20 02:24:12;;;;;;;7.45;5.43;;;;;;;20.74;59.61;99947.66;4971770;28;20035;-89
2022/07/20 02:26:37;;;;;;;6.63;5.15;;;;;;;20.76;59.41;99954.47;4971804;28;20112;-89
2022/07/20 02:29:03;;;;;;;6.28;4.70;;;;;;;20.78;59.44;99959.66;4971410;28;20138;-90
2022/07/20 02:31:28;;;;;;;6.40;4.43;;;;;;;20.65;59.18;99939.53;4971739;28;20030;-89
2022/07/20 02:33:53;;;;;;;4.38;3.85;;;;;;;20.67;59.05;99942.03;4971617;28;20034;-89
2022/07/20 02:36:19;;;;;;;6.90;3.80;;;;;;;20.72;59.70;99962.81;4971338;28;20054;-89
2022/07/20 02:38:44;;;;;;;4.95;4.10;;;;;;;20.67;60.45;99963.19;4971726;28;20497;-89
2022/07/20 02:41:10;;;;;;;5.65;4.00;;;;;;;20.56;60.91;99950.00;4986096;28;20166;-92
2022/07/20 02:43:36;;;;;;;7.88;4.28;;;;;;;20.52;61.60;99962.69;4975991;28;20489;-89
2022/07/20 02:46:03;;;;;;;4.90;3.70;;;;;;;20.53;61.73;99969.66;4975794;28;20120;-89
2022/07/20 02:48:29;;;;;;;7.07;4.63;;;;;;;20.36;61.95;99943.72;4975935;28;20061;-89
2022/07/20 02:50:54;;;;;;;8.60;4.53;;;;;;;20.48;61.87;99970.94;4993069;28;20583;-89
2022/07/20 02:53:20;;;;;;;6.75;4.68;;;;;;;20.39;62.36;99956.66;4975511;28;20029;-89
2022/07/20 02:55:45;;;;;;;6.55;4.15;;;;;;;20.42;62.91;99970.50;4975707;28;20479;-89
2022/07/20 02:58:11;;;;;;;8.05;4.07;;;;;;;20.36;63.04;99976.31;4975358;28;20130;-89
2022/07/20 03:00:39;;;;;;;8.40;4.38;;;;;;;20.32;63.08;99971.41;4975677;28;20076;-89
2022/07/20 03:03:05;;;;;;;7.03;4.45;;;;;;;20.27;63.23;99969.13;4991728;28;20019;-90
2022/07/20 03:05:31;;;;;;;6.25;3.80;;;;;;;20.22;64.15;99966.00;4975800;28;20034;-89
2022/07/20 03:07:56;;;;;;;5.82;4.40;;;;;;;20.20;63.81;99965.28;4975777;28;20030;-89
2022/07/20 03:10:22;;;;;;;6.20;3.97;;;;;;;20.15;63.93;99960.38;4975166;28;20037;-88
2022/07/20 03:12:48;;;;;;;7.43;4.03;;;;;;;20.11;64.14;99961.59;4975278;28;20440;-89
2022/07/20 03:15:13;;;;;;;8.88;4.18;;;;;;;20.10;64.06;99965.22;4975384;28;20070;-88
2022/07/20 03:17:48;;;;;;;6.18;4.50;;;;;;;20.11;64.19;99966.88;4975524;28;20018;-89
2022/07/20 03:20:18;;;;;;;7.15;4.47;;;;;;;19.87;63.92;99929.22;4975393;28;20510;-90
2022/07/20 03:22:43;;;;;;;6.07;3.97;;;;;;;20.05;64.00;99962.06;4975664;28;20029;-90
2022/07/20 03:25:09;;;;;;;6.75;4.40;;;;;;;20.07;63.72;99965.44;4975353;28;20026;-89
2022/07/20 03:27:34;;;;;;;4.70;3.92;;;;;;;20.09;63.69;99970.59;4975198;28;20133;-89
2022/07/20 03:30:00;;;;;;;6.05;4.45;;;;;;;20.08;63.53;99967.13;4975221;28;20022;-89
2022/07/20 03:32:25;;;;;;;7.28;4.00;;;;;;;20.11;63.07;99972.16;4979079;28;20034;-89
2022/07/20 03:34:51;;;;;;;7.78;4.75;;;;;;;20.08;63.79;99967.13;4979436;28;20038;-88
2022/07/20 03:37:16;;;;;;;8.65;4.50;;;;;;;20.15;65.23;99975.41;4979035;28;20026;-89
2022/07/20 03:39:41;;;;;;;7.38;5.00;;;;;;;20.16;65.78;99972.63;4978977;28;20026;-89
2022/07/20 03:42:07;;;;;;;7.90;4.38;;;;;;;20.21;65.96;99979.34;4978566;28;20065;-89
2022/07/20 03:44:32;;;;;;;7.30;4.75;;;;;;;20.20;66.12;99986.44;4979161;28;20394;-89
2022/07/20 03:46:57;;;;;;;6.13;4.13;;;;;;;20.22;66.92;99986.31;4978997;28;20433;-89
2022/07/20 03:49:23;;;;;;;7.07;4.65;;;;;;;20.23;67.38;99988.84;4978696;28;20117;-89
2022/07/20 03:51:48;;;;;;;10.73;5.13;;;;;;;20.26;67.67;99990.38;4978772;28;20038;-89
2022/07/20 03:54:13;;;;;;;6.38;5.25;;;;;;;20.29;67.21;99993.63;4978624;28;20469;-89
2022/07/20 03:56:42;;;;;;;7.35;4.53;;;;;;;20.32;67.46;99992.56;4978458;28;20741;-88
2022/07/20 03:59:09;;;;;;;11.52;5.00;;;;;;;20.40;67.60;99993.59;4978362;28;20035;-90
2022/07/20 04:01:35;;;;;;;7.57;4.88;;;;;;;20.37;67.70;99980.63;4978727;28;20114;-90
2022/07/20 04:04:01;;;;;;;10.23;4.85;;;;;;;20.40;67.51;99976.91;4978814;28;20122;-89
2022/07/20 04:06:26;;;;;;;6.00;4.65;;;;;;;20.53;67.74;99976.75;4978377;28;20125;-90
2022/07/20 04:08:51;;;;;;;8.30;5.22;;;;;;;20.71;67.20;99993.75;4978556;28;20080;-89
2022/07/20 04:11:17;;;;;;;9.13;4.93;;;;;;;20.93;67.30;100000.72;4978011;28;20474;-89
2022/07/20 04:13:42;;;;;;;9.57;4.70;;;;;;;21.22;67.13;99986.81;4978492;28;20077;-89
2022/07/20 04:16:07;;;;;;;7.82;4.88;;;;;;;21.76;65.68;99993.63;4978299;28;20039;-89
2022/07/20 04:18:33;;;;;;;6.25;4.75;;;;;;;22.49;63.83;99984.44;4978723;28;20018;-88
2022/07/20 04:20:58;;;;;;;14.70;4.90;;;;;;;23.34;60.90;99980.97;4978242;28;20027;-89
2022/07/20 04:23:24;;;;;;;9.13;5.18;;;;;;;24.22;57.69;99991.16;4978131;28;20026;-90
2022/07/20 04:25:49;;;;;;;10.35;4.47;;;;;;;24.86;55.52;99995.41;4977877;28;20030;-90
2022/07/20 04:28:16;;;;;;;7.30;4.53;;;;;;;25.07;53.58;99987.06;4978036;28;20023;-90
2022/07/20 04:30:41;;;;;;;10.30;5.05;;;;;;;25.22;51.72;99980.22;4978359;28;20112;-89
2022/07/20 04:33:07;;;;;;;9.35;5.75;;;;;;;25.54;51.48;99992.91;4978503;28;20062;-90
2022/07/20 04:35:32;;;;;;;8.18;5.97;;;;;;;25.74;50.99;99989.97;4978407;28;20030;-90
2022/07/20 04:37:57;;;;;;;7.57;5.60;;;;;;;25.97;51.23;99990.25;4978417;28;20365;-89
2022/07/20 04:40:23;;;;;;;7.00;5.18;;;;;;;26.30;49.93;100000.00;4978017;28;20030;-91
2022/07/20 04:42:48;;;;;;;8.18;4.50;;;;;;;26.97;49.69;99999.91;4977345;28;20522;-90
2022/07/20 04:45:13;;;;;;;7.53;4.70;;;;;;;27.90;47.29;99995.84;4978102;28;20617;-91
2022/07/20 04:47:39;;;;;;;7.45;5.22;;;;;;;28.56;45.25;99992.56;4977932;28;20382;-90
2022/07/20 04:50:05;;;;;;;6.22;4.47;;;;;;;28.56;44.70;99997.94;4977908;28;20026;-90
2022/07/20 04:52:30;;;;;;;7.97;4.90;;;;;;;28.41;44.12;99999.75;4994610;28;20038;-90
2022/07/20 04:54:55;;;;;;;10.02;4.50;;;;;;;28.46;45.05;100002.72;4977992;28;20073;-91
2022/07/20 04:57:21;;;;;;;12.13;4.40;;;;;;;28.45;45.39;100005.56;4977280;28;20027;-89
2022/07/20 04:59:46;;;;;;;10.63;4.70;;;;;;;28.45;45.68;100002.91;4977439;28;20035;-89
2022/07/20 05:02:12;;;;;;;11.73;5.20;;;;;;;28.65;44.56;100001.38;4976819;28;20030;-90
2022/07/20 05:04:37;;;;;;;8.52;4.85;;;;;;;29.50;42.98;100002.94;4977297;28;20118;-89
2022/07/20 05:07:02;;;;;;;7.53;4.28;;;;;;;30.47;39.72;100008.06;4977064;28;20018;-89
2022/07/20 05:09:28;;;;;;;8.10;4.38;;;;;;;31.37;37.99;100010.06;4976663;28;20026;-89
2022/07/20 05:11:53;;;;;;;8.88;4.43;;;;;;;31.39;36.53;100018.78;4977022;28;20034;-89
2022/07/20 05:14:18;;;;;;;7.53;4.15;;;;;;;30.78;37.68;99997.84;4976925;28;20382;-89
2022/07/20 05:16:45;;;;;;;10.95;4.50;;;;;;;30.52;37.78;100006.47;4977188;28;20022;-90
2022/07/20 05:19:11;;;;;;;6.22;4.55;;;;;;;30.31;37.86;99982.28;4976924;28;20458;-89
2022/07/20 05:21:36;;;;;;;7.47;4.85;;;;;;;30.19;38.37;100003.44;4976737;28;20470;-89
2022/07/20 05:24:02;;;;;;;7.03;4.68;;;;;;;30.15;38.21;100004.84;4976776;28;20037;-89
2022/07/20 05:26:27;;;;;;;6.13;4.70;;;;;;;30.79;36.83;99996.78;4976367;28;20062;-88
2022/07/20 05:28:53;;;;;;;6.20;4.20;;;;;;;31.93;35.43;99998.34;4976853;28;20073;-89
2022/07/20 05:31:18;;;;;;;12.70;5.28;;;;;;;32.52;33.96;100011.16;4976431;28;20096;-89
2022/07/20 05:33:44;;;;;;;5.13;4.40;;;;;;;31.91;34.36;99984.28;4992905;28;20026;-90
2022/07/20 05:36:10;;;;;;;10.57;5.15;;;;;;;31.39;35.13;100009.88;4976446;28;20489;-89
2022/07/20 05:38:35;;;;;;;6.30;4.65;;;;;;;30.94;35.73;99994.03;4975548;28;20034;-89
2022/07/20 05:41:01;;;;;;;10.30;4.65;;;;;;;30.91;35.94;100004.34;4992138;28;20120;-90
2022/07/20 05:43:27;;;;;;;7.38;4.78;;;;;;;30.91;35.86;100007.88;4975815;28;20038;-90
2022/07/20 05:45:52;;;;;;;10.52;4.60;;;;;;;31.26;36.06;100010.59;4975933;28;20040;-90
2022/07/20 05:48:17;;;;;;;6.78;4.13;;;;;;;32.67;34.08;100008.28;4975505;28;20038;-90
2022/07/20 05:50:43;;;;;;;6.70;4.63;;;;;;;32.82;33.46;100008.06;4975590;28;20039;-90
2022/07/20 05:53:10;;;;;;;8.57;5.13;;;;;;;32.34;34.02;100005.53;4975058;28;20038;-90
2022/07/20 05:55:37;;;;;;;15.30;4.85;;;;;;;32.10;35.81;100007.72;4975593;28;20567;-92
2022/07/20 05:58:04;;;;;;;5.70;3.95;;;;;;;31.93;36.10;99993.78;4975541;28;20030;-91
2022/07/20 06:00:29;;;;;;;6.57;3.97;;;;;;;31.94;35.84;100005.41;4975345;28;20214;-90
2022/07/20 06:02:55;;;;;;;7.10;4.70;;;;;;;31.85;35.60;100009.31;4974805;28;20569;-85
2022/07/20 06:05:20;;;;;;;8.90;4.30;;;;;;;31.68;36.46;99992.63;4990628;28;20080;-88
2022/07/20 06:07:46;;;;;;;9.10;4.65;;;;;;;31.50;36.18;100012.84;4974508;28;20088;-88
2022/07/20 06:10:12;;;;;;;11.32;4.75;;;;;;;31.58;36.58;100014.53;4959676;28;20068;-87
2022/07/20 06:12:37;;;;;;;6.28;4.40;;;;;;;31.96;35.25;100019.50;4971124;28;20039;-88
2022/07/20 06:15:03;;;;;;;9.10;4.72;;;;;;;32.07;35.23;100018.94;4955098;28;20031;-88
2022/07/20 06:17:36;;;;;;;6.47;3.83;;;;;;;32.38;35.58;100018.41;4954676;28;20568;-88
2022/07/20 06:20:27;;;;;;;8.05;4.43;;;;;;;33.29;34.80;100023.25;4954962;28;20078;-87
2022/07/20 06:22:53;;;;;;;7.32;4.55;;;;;;;35.00;31.22;100026.16;4860666;29;20773;-88
2022/07/20 06:25:19;;;;;;;7.57;4.43;;;;;;;36.62;28.68;100022.16;4860259;29;20131;-88
2022/07/20 06:27:45;;;;;;;5.07;3.88;;;;;;;37.69;27.24;100038.28;4860343;29;20502;-88
2022/07/20 06:30:12;;;;;;;10.40;4.15;;;;;;;37.50;25.99;100031.31;4878388;29;20049;-88
2022/07/20 06:32:38;;;;;;;6.15;4.15;;;;;;;36.91;26.10;100034.81;4878947;29;20593;-88
2022/07/20 06:35:04;;;;;;;11.90;4.60;;;;;;;36.36;26.53;100036.94;4878981;29;20041;-88
2022/07/20 06:37:30;;;;;;;10.88;4.15;;;;;;;36.61;27.04;100040.31;4878711;29;20029;-87
2022/07/20 06:39:55;;;;;;;5.60;3.95;;;;;;;37.57;26.07;100032.84;4894566;29;20064;-88
2022/07/20 06:42:21;;;;;;;6.53;4.07;;;;;;;38.23;24.83;100051.59;4878053;29;20736;-88
2022/07/20 06:44:46;;;;;;;8.05;4.00;;;;;;;39.26;23.84;100044.13;4856770;29;20053;-88
2022/07/20 06:47:12;;;;;;;5.93;4.43;;;;;;;40.07;22.98;100049.81;4856173;29;20045;-89
2022/07/20 06:49:38;;;;;;;7.50;4.57;;;;;;;39.75;22.43;100038.81;4856238;29;20038;-88
2022/07/20 06:52:04;;;;;;;7.10;4.55;;;;;;;40.07;22.71;100052.53;4856136;29;20037;-90
2022/07/20 06:54:29;;;;;;;5.88;3.90;;;;;;;40.51;22.50;100050.56;4856578;29;20045;-90
2022/07/20 06:56:55;;;;;;;8.18;4.88;;;;;;;41.02;20.83;100052.94;4857379;29;20037;-91
2022/07/20 06:59:20;;;;;;;7.82;4.10;;;;;;;40.55;21.25;100049.00;4887118;29;20134;-90
2022/07/20 07:01:46;;;;;;;7.80;4.05;;;;;;;40.98;21.76;100051.84;4951413;29;20075;-89
2022/07/20 07:04:11;;;;;;;5.85;4.00;;;;;;;41.55;20.77;100049.19;4935366;29;20550;-89
2022/07/20 07:06:37;;;;;;;13.40;4.10;;;;;;;41.94;20.25;100046.09;4953871;28;20039;-90
2022/07/20 07:09:04;;;;;;;7.85;3.80;;;;;;;42.40;19.97;100053.63;4939294;29;20039;-90
2022/07/20 07:11:29;;;;;;;7.38;4.20;;;;;;;41.67;19.90;100045.41;4938731;29;20056;-90
2022/07/20 07:13:55;;;;;;;13.77;5.32;;;;;;;41.20;20.74;100051.69;4955113;29;20037;-89
2022/07/20 07:16:21;;;;;;;11.75;4.70;;;;;;;40.74;21.16;100041.22;4949597;29;20086;-88
2022/07/20 07:18:46;;;;;;;10.70;4.30;;;;;;;40.80;21.48;100053.03;4938920;28;20130;-87
2022/07/20 07:21:11;;;;;;;4.60;3.83;;;;;;;41.42;21.90;100046.94;4954983;29;20039;-87
2022/07/20 07:23:37;;;;;;;4.38;3.75;;;;;;;41.33;21.16;100052.03;4954786;28;20070;-88
2022/07/20 07:26:03;;;;;;;5.55;3.80;;;;;;;41.07;21.47;100052.97;4954518;29;20059;-87
2022/07/20 07:28:28;;;;;;;6.28;4.03;;;;;;;41.34;21.11;100044.66;4953170;28;20059;-85
2022/07/20 07:30:53;;;;;;;9.63;4.32;;;;;;;41.13;21.56;100055.50;4954263;28;20094;-86
2022/07/20 07:33:25;;;;;;;5.70;3.60;;;;;;;41.58;21.85;100053.31;4953629;29;20467;-88
2022/07/20 07:35:53;;;;;;;4.60;3.83;;;;;;;41.98;21.18;100051.84;4954118;29;20067;-88
2022/07/20 07:38:19;;;;;;;8.02;3.40;;;;;;;42.15;21.27;100060.66;4937889;29;20479;-88
2022/07/20 07:40:45;;;;;;;4.97;3.15;;;;;;;42.14;20.40;100048.03;4954520;29;20035;-88
2022/07/20 07:43:10;;;;;;;7.40;3.05;;;;;;;42.36;20.04;100054.16;4953965;29;20634;-88
2022/07/20 07:45:36;;;;;;;3.75;3.03;;;;;;;42.54;20.09;100051.97;4937611;29;20039;-88
2022/07/20 07:48:01;;;;;;;5.75;3.47;;;;;;;41.99;19.83;100046.09;4985366;28;20042;-88
2022/07/20 07:50:27;;;;;;;8.65;3.63;;;;;;;41.73;20.09;100041.63;4993785;28;20038;-88
2022/07/20 07:52:52;;;;;;;5.80;3.47;;;;;;;41.44;20.49;100049.41;4994220;28;20022;-88
2022/07/20 07:55:18;;;;;;;5.93;3.40;;;;;;;41.24;20.62;100047.34;4977113;28;20022;-89
2022/07/20 07:57:43;;;;;;;6.13;3.35;;;;;;;41.16;21.01;100043.19;4976777;28;20126;-90
2022/07/20 08:00:09;;;;;;;7.50;3.97;;;;;;;40.67;20.42;100040.66;4977681;28;20052;-91
2022/07/20 08:02:34;;;;;;;3.53;3.22;;;;;;;40.51;21.57;100041.56;4976561;28;20402;-88
2022/07/20 08:05:00;;;;;;;6.82;3.38;;;;;;;40.63;21.68;100048.53;4993828;28;20030;-88
2022/07/20 08:07:25;;;;;;;5.75;3.25;;;;;;;40.36;20.67;100051.25;4994994;28;20030;-88
2022/07/20 08:09:51;;;;;;;6.10;3.42;;;;;;;39.84;22.04;100035.38;4977681;28;20065;-89
2022/07/20 08:12:16;;;;;;;4.78;3.35;;;;;;;39.57;22.72;100034.47;4972334;28;20453;-90
2022/07/20 08:14:42;;;;;;;6.68;3.35;;;;;;;39.51;22.53;100038.22;4972674;28;20050;-91
2022/07/20 08:17:07;;;;;;;7.05;3.50;;;;;;;39.38;22.95;100044.84;4972773;28;20142;-89
2022/07/20 08:19:32;;;;;;;4.05;2.85;;;;;;;39.33;23.10;100044.78;4956076;28;20129;-89
2022/07/20 08:21:58;;;;;;;6.25;3.65;;;;;;;38.92;23.26;100046.88;4956489;28;20407;-91
2022/07/20 08:24:23;;;;;;;5.40;3.28;;;;;;;38.66;24.22;100049.13;4972494;28;20031;-90
2022/07/20 08:26:49;;;;;;;8.07;4.45;;;;;;;38.47;24.21;100041.44;4956571;28;20126;-90
2022/07/20 08:29:14;;;;;;;6.43;3.45;;;;;;;37.88;23.89;100038.94;4956808;28;20031;-88
2022/07/20 08:31:39;;;;;;;5.72;3.50;;;;;;;37.65;24.20;100039.81;4956048;28;20086;-89
2022/07/20 08:34:05;;;;;;;13.38;4.00;;;;;;;37.57;24.28;100034.75;4973030;28;20030;-89
2022/07/20 08:36:30;;;;;;;7.45;3.70;;;;;;;36.82;24.73;100033.53;4956546;28;20098;-88
2022/07/20 08:38:55;;;;;;;5.18;3.20;;;;;;;36.42;25.70;100042.25;4956292;28;20471;-89
2022/07/20 08:41:21;;;;;;;7.10;3.40;;;;;;;36.25;26.59;100040.44;4956333;28;20041;-88
2022/07/20 08:43:47;;;;;;;6.32;3.38;;;;;;;36.04;26.07;100042.59;4957128;28;20058;-88
2022/07/20 08:46:12;;;;;;;7.85;3.80;;;;;;;35.94;25.90;100042.25;4957173;28;20023;-88
2022/07/20 08:48:41;;;;;;;6.75;3.90;;;;;;;35.76;26.29;100043.13;4974672;28;20023;-89
2022/07/20 08:51:07;;;;;;;5.50;3.53;;;;;;;35.53;25.90;100024.03;4957543;28;20094;-88
2022/07/20 08:53:32;;;;;;;5.45;3.17;;;;;;;35.43;26.13;100038.84;4956996;28;20042;-88
2022/07/20 08:55:57;;;;;;;4.88;3.38;;;;;;;35.15;26.29;100027.72;4957395;28;20023;-89
2022/07/20 08:58:23;;;;;;;5.95;3.65;;;;;;;35.08;26.52;100035.88;4956976;28;20030;-89
2022/07/20 09:00:48;;;;;;;6.93;3.67;;;;;;;34.77;26.73;100036.75;4957027;28;20023;-90
2022/07/20 09:03:14;;;;;;;6.78;3.15;;;;;;;34.69;26.98;100029.72;4975272;28;20463;-89
2022/07/20 09:05:41;;;;;;;5.18;3.05;;;;;;;34.62;27.17;100026.25;4957335;28;20114;-88
2022/07/20 09:08:12;;;;;;;5.03;3.33;;;;;;;34.54;26.90;100025.69;4957451;28;20493;-88
2022/07/20 09:10:40;;;;;;;10.07;3.35;;;;;;;34.60;27.09;100028.34;4957074;28;20022;-88
2022/07/20 09:13:17;;;;;;;6.78;3.42;;;;;;;34.55;26.69;100027.31;4974595;28;20027;-88
2022/07/20 09:15:46;;;;;;;6.95;3.30;;;;;;;34.35;26.86;100017.47;4973460;28;20566;-89
2022/07/20 09:18:12;;;;;;;9.88;3.45;;;;;;;34.48;27.41;100027.38;4989821;28;20034;-89
2022/07/20 09:20:49;;;;;;;6.22;3.25;;;;;;;34.55;28.46;100024.63;4989902;28;20106;-90
2022/07/20 09:23:33;;;;;;;8.60;3.60;;;;;;;34.51;28.00;100029.63;4957478;28;20470;-90
2022/07/20 09:26:04;;;;;;;8.18;3.55;;;;;;;34.51;27.75;100026.94;4952507;29;20039;-90
2022/07/20 09:28:39;;;;;;;7.68;3.72;;;;;;;34.66;26.22;100034.75;4936162;29;20074;-87
2022/07/20 09:31:26;;;;;;;6.85;3.40;;;;;;;34.62;26.95;100022.72;4952585;29;20094;-87
2022/07/20 09:33:58;;;;;;;6.15;3.72;;;;;;;34.76;28.27;100029.66;4968650;28;20031;-87
2022/07/20 09:36:26;;;;;;;5.55;3.65;;;;;;;34.98;27.07;100024.75;4968335;28;20098;-88
2022/07/20 09:38:52;;;;;;;4.72;2.83;;;;;;;35.15;26.63;100023.13;4968224;28;20035;-88
2022/07/20 09:41:29;;;;;;;9.02;3.60;;;;;;;35.18;26.04;100016.41;4952314;29;20098;-88
2022/07/20 09:43:57;;;;;;;5.57;3.65;;;;;;;35.27;27.60;100020.50;4968586;28;20126;-88
2022/07/20 09:46:26;;;;;;;4.78;3.05;;;;;;;35.33;27.10;100025.03;4952328;29;20040;-88
2022/07/20 09:48:54;;;;;;;4.97;3.28;;;;;;;35.38;27.76;100013.50;4968338;28;20039;-88
2022/07/20 09:51:30;;;;;;;5.60;3.70;;;;;;;35.44;27.26;100018.00;4936193;29;20054;-88
2022/07/20 09:54:16;;;;;;;7.32;3.67;;;;;;;35.48;27.09;100021.97;4968523;28;20027;-88
2022/07/20 09:56:44;;;;;;;5.72;3.00;;;;;;;35.49;27.42;100005.50;4976251;28;20450;-88
2022/07/20 09:59:11;;;;;;;4.32;3.17;;;;;;;35.52;27.51;100011.50;4972733;28;20035;-88
2022/07/20 10:01:42;;;;;;;4.80;3.63;;;;;;;35.58;26.65;100008.72;4988722;28;20118;-89
2022/07/20 10:04:10;;;;;;;6.50;3.20;;;;;;;35.62;26.50;100012.66;4956942;28;20101;-89
2022/07/20 10:06:38;;;;;;;9.82;3.65;;;;;;;35.48;24.36;100005.69;4956376;28;20123;-89
2022/07/20 10:09:05;;;;;;;6.43;3.10;;;;;;;35.31;26.59;100005.44;4988930;28;20105;-88
2022/07/20 10:11:31;;;;;;;6.57;3.10;;;;;;;35.22;26.65;99999.50;4956585;28;20089;-89
2022/07/20 10:13:59;;;;;;;8.32;3.30;;;;;;;35.27;26.23;99984.44;4956684;28;20498;-88
2022/07/20 10:16:35;;;;;;;3.83;3.00;;;;;;;35.46;26.64;100010.50;4988880;28;20062;-89
2022/07/20 10:19:03;;;;;;;5.63;3.10;;;;;;;35.54;26.22;100014.84;4956243;28;20030;-89
2022/07/20 10:21:34;;;;;;;5.80;3.30;;;;;;;35.51;25.24;99994.44;4956364;28;20035;-88
2022/07/20 10:24:19;;;;;;;5.82;2.88;;;;;;;35.60;26.02;100008.50;4988576;28;20027;-88
2022/07/20 10:26:46;;;;;;;11.20;3.83;;;;;;;35.67;26.03;100010.06;4988060;28;20050;-89
2022/07/20 10:29:24;;;;;;;9.52;2.90;;;;;;;35.71;25.84;100011.28;4956291;28;20360;-88
2022/07/20 10:31:51;;;;;;;8.30;3.75;;;;;;;35.69;25.09;99994.44;4956101;28;20117;-87
2022/07/20 10:34:34;;;;;;;6.30;3.58;;;;;;;35.78;24.50;100000.38;4955850;28;20023;-88
2022/07/20 10:37:23;;;;;;;6.97;3.13;;;;;;;35.75;23.62;100000.81;4951496;29;20508;-88
2022/07/20 10:40:02;;;;;;;5.15;3.58;;;;;;;35.69;24.98;99997.16;4967606;28;20035;-89
2022/07/20 10:42:31;;;;;;;5.57;3.63;;;;;;;35.72;24.20;99996.66;4951375;28;20524;-88
2022/07/20 10:45:15;;;;;;;6.20;3.53;;;;;;;35.78;24.50;99997.66;4935308;29;20067;-87
2022/07/20 10:47:55;;;;;;;5.50;3.65;;;;;;;35.71;23.17;99983.34;4951226;28;20035;-89
2022/07/20 10:50:24;;;;;;;7.07;3.80;;;;;;;35.79;23.17;99996.59;4967751;28;20526;-89
2022/07/20 10:52:56;;;;;;;5.47;3.90;;;;;;;35.83;23.26;99999.69;4951217;29;20487;-88
2022/07/20 10:55:33;;;;;;;6.30;3.78;;;;;;;35.85;23.18;99998.38;4967381;28;20090;-89
2022/07/20 10:58:07;;;;;;;7.18;4.03;;;;;;;35.78;23.43;99975.97;4951369;28;20039;-88
2022/07/20 11:00:44;;;;;;;7.00;3.95;;;;;;;35.86;23.72;99986.50;4967090;28;20074;-88
2022/07/20 11:03:16;;;;;;;7.05;3.88;;;;;;;35.78;24.37;99981.41;4935394;29;20109;-88
2022/07/20 11:05:47;;;;;;;8.23;4.10;;;;;;;35.83;23.45;99980.72;4935135;29;20050;-88
2022/07/20 11:08:13;;;;;;;8.90;5.07;;;;;;;35.81;24.69;99982.81;4967300;28;20130;-88
2022/07/20 11:10:40;;;;;;;5.70;4.38;;;;;;;35.82;24.28;99979.88;4935143;29;20035;-88
2022/07/20 11:13:08;;;;;;;7.65;4.97;;;;;;;35.78;22.92;99973.25;4967432;28;20039;-87
2022/07/20 11:15:41;;;;;;;7.65;4.68;;;;;;;35.72;24.34;99972.28;4986903;28;20042;-87
2022/07/20 11:18:08;;;;;;;8.30;4.60;;;;;;;35.66;25.14;99967.78;4987681;28;20026;-85
2022/07/20 11:20:34;;;;;;;8.27;3.97;;;;;;;35.56;24.17;99975.59;4972519;28;20117;-85
2022/07/20 11:23:02;;;;;;;6.32;4.07;;;;;;;35.47;25.02;99968.81;4955880;28;20105;-86
2022/07/20 11:25:47;;;;;;;9.55;4.10;;;;;;;35.53;24.91;99965.25;4987830;28;20030;-86
2022/07/20 11:28:15;;;;;;;5.43;3.88;;;;;;;35.61;25.26;99970.34;4971565;28;20043;-86
2022/07/20 11:30:42;;;;;;;7.45;4.50;;;;;;;35.67;25.47;99974.03;4955099;28;20039;-85